createdAt,value
2023-05-04T00:00:44.457Z,55.73
2023-05-04T00:01:44.576Z,55.85
2023-05-04T00:02:44.673Z,55.58
2023-05-04T00:03:44.719Z,55.05
2023-05-04T00:04:44.632Z,54.86
2023-05-04T00:05:44.650Z,55.38
2023-05-04T00:06:44.724Z,55.57
2023-05-04T00:07:44.794Z,55.30
2023-05-04T00:08:44.852Z,54.90
2023-05-04T00:09:44.791Z,54.61
2023-05-04T00:10:44.793Z,54.46
2023-05-04T00:11:44.837Z,54.56
2023-05-04T00:12:44.902Z,54.81
2023-05-04T00:13:44.884Z,55.07
2023-05-04T00:14:44.864Z,55.66
2023-05-04T00:15:44.939Z,55.55
2023-05-04T00:16:44.923Z,55.44
2023-05-04T00:17:45.020Z,55.31
2023-05-04T00:18:44.950Z,55.05
2023-05-04T00:19:44.988Z,54.77
2023-05-04T00:20:45.044Z,54.56
2023-05-04T00:21:45.044Z,54.88
2023-05-04T00:22:45.071Z,55.34
2023-05-04T00:23:45.140Z,55.86
2023-05-04T00:24:45.229Z,55.91
2023-05-04T00:25:45.234Z,56.00
2023-05-04T00:26:45.298Z,56.15
2023-05-04T00:27:45.315Z,56.11
2023-05-04T00:28:45.327Z,56.41
2023-05-04T00:29:45.374Z,56.33
2023-05-04T00:30:45.425Z,56.97
2023-05-04T00:31:45.505Z,57.32
2023-05-04T00:32:45.533Z,57.55
2023-05-04T00:33:45.457Z,57.91
2023-05-04T00:34:45.553Z,57.89
2023-05-04T00:35:45.516Z,58.52
2023-05-04T00:36:45.558Z,58.90
2023-05-04T00:37:46.240Z,59.40
2023-05-04T00:38:45.492Z,59.49
2023-05-04T00:39:45.551Z,59.56
2023-05-04T00:40:45.612Z,59.49
2023-05-04T00:41:46.685Z,59.48
2023-05-04T00:42:45.671Z,59.58
2023-05-04T00:43:45.756Z,59.28
2023-05-04T00:44:45.737Z,58.79
2023-05-04T00:45:45.799Z,58.72
2023-05-04T00:46:45.793Z,58.50
2023-05-04T00:47:45.833Z,58.22
2023-05-04T00:48:45.875Z,58.59
2023-05-04T00:49:45.938Z,58.70
2023-05-04T00:50:45.922Z,58.75
2023-05-04T00:51:45.821Z,58.99
2023-05-04T00:52:45.848Z,59.26
2023-05-04T00:53:45.853Z,59.48
2023-05-04T00:54:46.664Z,59.05
2023-05-04T00:55:45.858Z,58.52
2023-05-04T00:56:45.899Z,58.18
2023-05-04T00:57:46.192Z,57.94
2023-05-04T00:58:45.901Z,57.55
2023-05-04T00:59:45.925Z,57.46
2023-05-04T01:00:45.974Z,57.56
2023-05-04T01:01:45.967Z,57.62
2023-05-04T01:02:46.061Z,57.27
2023-05-04T01:03:46.097Z,57.07
2023-05-04T01:04:46.122Z,57.06
2023-05-04T01:05:46.044Z,56.85
2023-05-04T01:06:46.124Z,56.87
2023-05-04T01:07:46.124Z,56.62
2023-05-04T01:08:46.096Z,56.60
2023-05-04T01:09:46.120Z,56.24
2023-05-04T01:10:46.088Z,56.08
2023-05-04T01:11:46.086Z,56.09
2023-05-04T01:12:46.169Z,56.33
2023-05-04T01:13:46.126Z,56.25
2023-05-04T01:14:46.178Z,56.07
2023-05-04T01:15:46.221Z,55.97
2023-05-04T01:16:46.295Z,55.58
2023-05-04T01:17:46.417Z,55.40
2023-05-04T01:18:46.339Z,55.09
2023-05-04T01:19:46.340Z,54.49
2023-05-04T01:20:46.383Z,54.50
2023-05-04T01:21:46.392Z,55.54
2023-05-04T01:22:46.452Z,56.40
2023-05-04T01:23:46.454Z,56.83
2023-05-04T01:24:46.450Z,57.41
2023-05-04T01:25:46.460Z,57.37
2023-05-04T01:26:46.522Z,56.93
2023-05-04T01:27:46.609Z,56.67
2023-05-04T01:28:46.637Z,57.16
2023-05-04T01:29:46.647Z,57.75
2023-05-04T01:30:46.734Z,57.90
2023-05-04T01:31:46.743Z,58.43
2023-05-04T01:32:46.783Z,58.59
2023-05-04T01:33:46.766Z,58.53
2023-05-04T01:34:46.773Z,58.72
2023-05-04T01:35:46.846Z,58.79
2023-05-04T01:36:47.140Z,58.66
2023-05-04T01:37:46.879Z,58.37
2023-05-04T01:38:46.938Z,58.17
2023-05-04T01:39:46.996Z,58.00
2023-05-04T01:40:46.998Z,57.57
2023-05-04T01:41:47.018Z,57.20
2023-05-04T01:42:47.088Z,56.82
2023-05-04T01:43:47.142Z,57.02
2023-05-04T01:44:47.222Z,57.14
2023-05-04T01:45:47.286Z,57.19
2023-05-04T01:46:47.298Z,56.98
2023-05-04T01:47:47.416Z,56.98
2023-05-04T01:48:47.352Z,57.42
2023-05-04T01:49:47.441Z,57.53
2023-05-04T01:50:47.444Z,57.61
2023-05-04T01:51:47.442Z,57.69
2023-05-04T01:52:47.476Z,57.90
2023-05-04T01:53:47.480Z,58.00
2023-05-04T01:54:47.553Z,57.88
2023-05-04T01:55:47.588Z,58.01
2023-05-04T01:56:47.605Z,57.92
2023-05-04T01:57:47.758Z,58.64
2023-05-04T01:58:47.649Z,58.78
2023-05-04T01:59:47.706Z,58.88
2023-05-04T02:00:47.715Z,59.08
2023-05-04T02:01:47.878Z,59.39
2023-05-04T02:02:47.891Z,59.75
2023-05-04T02:03:47.924Z,60.05
2023-05-04T02:04:47.908Z,59.82
2023-05-04T02:05:47.930Z,59.28
2023-05-04T02:06:47.960Z,58.69
2023-05-04T02:07:47.974Z,59.02
2023-05-04T02:08:48.013Z,59.42
2023-05-04T02:09:47.975Z,60.13
2023-05-04T02:10:48.029Z,60.43
2023-05-04T02:11:48.119Z,60.55
2023-05-04T02:12:48.136Z,60.69
2023-05-04T02:13:48.119Z,60.66
2023-05-04T02:14:48.159Z,60.49
2023-05-04T02:15:48.224Z,60.69
2023-05-04T02:16:48.223Z,60.69
2023-05-04T02:17:48.308Z,60.41
2023-05-04T02:18:48.361Z,60.31
2023-05-04T02:19:48.349Z,60.44
2023-05-04T02:20:48.434Z,60.35
2023-05-04T02:21:48.465Z,60.55
2023-05-04T02:22:48.463Z,60.59
2023-05-04T02:23:48.552Z,60.36
2023-05-04T02:24:48.580Z,60.29
2023-05-04T02:25:48.627Z,60.28
2023-05-04T02:26:48.717Z,60.34
2023-05-04T02:27:48.816Z,60.13
2023-05-04T02:28:48.847Z,59.26
2023-05-04T02:29:48.871Z,59.41
2023-05-04T02:30:48.890Z,60.19
2023-05-04T02:31:49.052Z,60.08
2023-05-04T02:32:49.111Z,60.02
2023-05-04T02:33:49.066Z,60.18
2023-05-04T02:34:49.097Z,60.53
2023-05-04T02:35:49.114Z,60.36
2023-05-04T02:36:49.131Z,60.26
2023-05-04T02:37:49.126Z,60.61
2023-05-04T02:38:49.138Z,60.80
2023-05-04T02:39:49.207Z,60.89
2023-05-04T02:40:49.225Z,61.70
2023-05-04T02:41:49.301Z,61.37
2023-05-04T02:42:49.316Z,61.15
2023-05-04T02:43:49.322Z,60.78
2023-05-04T02:44:49.338Z,60.35
2023-05-04T02:45:49.423Z,59.99
2023-05-04T02:46:49.498Z,59.78
2023-05-04T02:47:49.528Z,59.99
2023-05-04T02:48:49.462Z,60.29
2023-05-04T02:49:49.495Z,60.67
2023-05-04T02:50:49.577Z,60.71
2023-05-04T02:51:49.644Z,60.60
2023-05-04T02:52:49.679Z,60.27
2023-05-04T02:53:49.712Z,59.73
2023-05-04T02:54:52.924Z,59.38
2023-05-04T02:55:49.862Z,59.09
2023-05-04T02:56:50.234Z,58.82
2023-05-04T02:57:49.757Z,58.83
2023-05-04T02:58:49.731Z,58.82
2023-05-04T02:59:49.748Z,58.86
2023-05-04T03:00:49.735Z,58.61
2023-05-04T03:01:49.799Z,58.08
2023-05-04T03:02:49.779Z,57.87
2023-05-04T03:03:49.815Z,57.54
2023-05-04T03:04:49.764Z,57.47
2023-05-04T03:05:49.705Z,57.56
2023-05-04T03:06:49.705Z,57.60
2023-05-04T03:07:49.674Z,57.78
2023-05-04T03:08:49.713Z,57.83
2023-05-04T03:09:49.718Z,57.73
2023-05-04T03:10:49.681Z,57.60
2023-05-04T03:11:49.714Z,58.02
2023-05-04T03:12:49.744Z,58.21
2023-05-04T03:13:49.757Z,58.58
2023-05-04T03:14:49.662Z,58.43
2023-05-04T03:15:49.688Z,58.66
2023-05-04T03:16:49.769Z,58.75
2023-05-04T03:17:49.710Z,58.77
2023-05-04T03:18:49.642Z,58.83
2023-05-04T03:19:49.603Z,58.88
2023-05-04T03:20:49.629Z,59.05
2023-05-04T03:21:49.574Z,59.34
2023-05-04T03:22:49.593Z,59.15
2023-05-04T03:23:49.568Z,58.69
2023-05-04T03:24:49.583Z,59.01
2023-05-04T03:25:49.648Z,59.57
2023-05-04T03:26:49.615Z,59.31
2023-05-04T03:27:49.638Z,58.96
2023-05-04T03:28:49.601Z,59.03
2023-05-04T03:29:49.536Z,59.91
2023-05-04T03:30:49.588Z,60.94
2023-05-04T03:31:49.683Z,61.23
2023-05-04T03:32:49.558Z,61.46
2023-05-04T03:33:49.495Z,61.72
2023-05-04T03:34:49.508Z,61.65
2023-05-04T03:35:49.597Z,61.84
2023-05-04T03:36:49.543Z,62.08
2023-05-04T03:37:49.480Z,62.29
2023-05-04T03:38:49.484Z,62.23
2023-05-04T03:39:49.449Z,62.23
2023-05-04T03:40:49.478Z,62.11
2023-05-04T03:41:49.442Z,62.45
2023-05-04T03:42:49.457Z,62.29
2023-05-04T03:43:49.419Z,61.83
2023-05-04T03:44:49.444Z,61.36
2023-05-04T03:45:49.502Z,61.78
2023-05-04T03:46:49.467Z,61.20
2023-05-04T03:47:49.471Z,61.12
2023-05-04T03:48:49.400Z,61.03
2023-05-04T03:49:49.390Z,61.44
2023-05-04T03:50:49.450Z,61.33
2023-05-04T03:51:49.508Z,60.41
2023-05-04T03:52:49.533Z,60.25
2023-05-04T03:53:49.563Z,60.34
2023-05-04T03:54:49.624Z,60.30
2023-05-04T03:55:49.645Z,60.33
2023-05-04T03:56:49.681Z,60.24
2023-05-04T03:57:49.696Z,60.40
2023-05-04T03:58:49.753Z,60.46
2023-05-04T03:59:49.794Z,60.12
2023-05-04T04:00:49.801Z,60.12
2023-05-04T04:01:49.835Z,59.84
2023-05-04T04:02:49.871Z,60.00
2023-05-04T04:03:49.901Z,59.90
2023-05-04T04:04:49.865Z,59.78
2023-05-04T04:05:49.878Z,59.85
2023-05-04T04:06:49.954Z,59.91
2023-05-04T04:07:50.034Z,59.93
2023-05-04T04:08:50.037Z,60.05
2023-05-04T04:09:50.076Z,59.99
2023-05-04T04:10:50.019Z,59.72
2023-05-04T04:11:50.041Z,59.44
2023-05-04T04:12:50.072Z,58.95
2023-05-04T04:13:50.032Z,58.62
2023-05-04T04:14:50.052Z,58.61
2023-05-04T04:15:50.087Z,58.48
2023-05-04T04:16:50.083Z,57.95
2023-05-04T04:17:50.161Z,58.15
2023-05-04T04:18:50.126Z,57.94
2023-05-04T04:19:50.141Z,57.94
2023-05-04T04:20:50.255Z,57.91
2023-05-04T04:21:50.218Z,57.78
2023-05-04T04:22:50.302Z,57.49
2023-05-04T04:23:50.318Z,57.21
2023-05-04T04:24:50.337Z,57.05
2023-05-04T04:25:50.354Z,56.86
2023-05-04T04:26:50.427Z,56.65
2023-05-04T04:27:50.463Z,56.25
2023-05-04T04:28:50.582Z,56.02
2023-05-04T04:29:50.521Z,56.11
2023-05-04T04:30:50.659Z,56.16
2023-05-04T04:31:50.647Z,56.41
2023-05-04T04:32:50.657Z,56.46
2023-05-04T04:33:50.598Z,56.47
2023-05-04T04:34:50.634Z,56.76
2023-05-04T04:35:50.766Z,57.04
2023-05-04T04:36:50.713Z,57.23
2023-05-04T04:37:50.771Z,57.45
2023-05-04T04:38:50.794Z,57.54
2023-05-04T04:39:50.823Z,57.95
2023-05-04T04:40:50.893Z,57.71
2023-05-04T04:41:50.945Z,57.57
2023-05-04T04:42:51.017Z,57.70
2023-05-04T04:43:51.042Z,57.66
2023-05-04T04:44:51.128Z,57.65
2023-05-04T04:45:51.125Z,57.49
2023-05-04T04:46:51.224Z,57.45
2023-05-04T04:47:51.329Z,57.25
2023-05-04T04:48:51.344Z,56.93
2023-05-04T04:49:51.313Z,57.17
2023-05-04T04:50:51.379Z,57.53
2023-05-04T04:51:51.445Z,57.43
2023-05-04T04:52:51.494Z,57.88
2023-05-04T04:53:51.533Z,58.37
2023-05-04T04:54:51.607Z,58.54
2023-05-04T04:55:51.598Z,58.76
2023-05-04T04:56:51.757Z,59.15
2023-05-04T04:57:51.656Z,59.10
2023-05-04T04:58:51.675Z,59.14
2023-05-04T04:59:51.689Z,59.47
2023-05-04T05:00:51.760Z,59.56
2023-05-04T05:01:51.796Z,59.74
2023-05-04T05:02:51.859Z,59.54
2023-05-04T05:03:51.870Z,59.56
2023-05-04T05:04:52.022Z,59.21
2023-05-04T05:05:51.969Z,59.11
2023-05-04T05:06:51.980Z,59.21
2023-05-04T05:07:52.046Z,59.73
2023-05-04T05:08:52.116Z,60.15
2023-05-04T05:09:52.168Z,60.32
2023-05-04T05:10:52.160Z,60.37
2023-05-04T05:11:52.229Z,60.92
2023-05-04T05:12:52.327Z,60.96
2023-05-04T05:13:52.279Z,60.76
2023-05-04T05:14:52.330Z,60.83
2023-05-04T05:15:52.366Z,60.74
2023-05-04T05:16:52.455Z,60.00
2023-05-04T05:17:52.499Z,59.65
2023-05-04T05:18:52.509Z,60.58
2023-05-04T05:19:52.566Z,60.93
2023-05-04T05:20:52.629Z,61.44
2023-05-04T05:21:52.780Z,61.09
2023-05-04T05:22:52.745Z,61.01
2023-05-04T05:23:53.677Z,60.68
2023-05-04T05:24:52.792Z,60.77
2023-05-04T05:25:52.717Z,60.64
2023-05-04T05:26:53.749Z,60.36
2023-05-04T05:27:52.793Z,60.90
2023-05-04T05:28:52.855Z,61.28
2023-05-04T05:29:53.069Z,60.81
2023-05-04T05:30:52.966Z,60.78
2023-05-04T05:31:52.870Z,60.67
2023-05-04T05:32:52.940Z,60.55
2023-05-04T05:33:52.911Z,60.39
2023-05-04T05:34:52.973Z,60.35
2023-05-04T05:35:52.988Z,60.23
2023-05-04T05:36:53.032Z,60.35
2023-05-04T05:37:56.196Z,60.79
2023-05-04T05:38:53.737Z,60.42
2023-05-04T05:39:53.044Z,59.87
2023-05-04T05:40:53.006Z,60.12
2023-05-04T05:41:53.064Z,60.55
2023-05-04T05:42:54.259Z,60.38
2023-05-04T05:43:53.036Z,60.10
2023-05-04T05:44:53.002Z,60.74
2023-05-04T05:45:52.987Z,60.73
2023-05-04T05:46:53.123Z,61.43
2023-05-04T05:47:53.339Z,60.91
2023-05-04T05:48:52.976Z,60.36
2023-05-04T05:49:53.477Z,61.46
2023-05-04T05:50:52.994Z,60.74
2023-05-04T05:51:52.955Z,60.56
2023-05-04T05:52:52.940Z,60.67
2023-05-04T05:53:52.915Z,61.29
2023-05-04T05:54:52.936Z,61.24
2023-05-04T05:55:53.291Z,60.87
2023-05-04T05:56:52.901Z,60.33
2023-05-04T05:57:53.290Z,59.54
2023-05-04T05:58:52.882Z,59.60
2023-05-04T05:59:52.948Z,59.57
2023-05-04T06:00:52.884Z,59.54
2023-05-04T06:01:52.918Z,59.36
2023-05-04T06:02:52.966Z,59.33
2023-05-04T06:03:53.135Z,59.28
2023-05-04T06:04:52.957Z,59.06
2023-05-04T06:05:52.831Z,58.71
2023-05-04T06:06:52.956Z,58.22
2023-05-04T06:07:53.903Z,57.92
2023-05-04T06:08:52.828Z,58.09
2023-05-04T06:09:52.914Z,57.87
2023-05-04T06:10:52.848Z,58.27
2023-05-04T06:11:55.322Z,58.31
2023-05-04T06:12:52.864Z,58.39
2023-05-04T06:13:52.871Z,57.62
2023-05-04T06:14:52.845Z,57.45
2023-05-04T06:15:52.937Z,57.54
2023-05-04T06:16:52.820Z,58.16
2023-05-04T06:17:52.858Z,58.99
2023-05-04T06:18:52.908Z,57.93
2023-05-04T06:19:52.789Z,57.93
2023-05-04T06:20:52.829Z,58.31
2023-05-04T06:21:52.780Z,57.92
2023-05-04T06:22:53.810Z,58.25
2023-05-04T06:23:52.759Z,59.20
2023-05-04T06:24:53.996Z,60.07
2023-05-04T06:25:52.779Z,59.08
2023-05-04T06:26:52.837Z,58.41
2023-05-04T06:27:52.732Z,57.94
2023-05-04T06:28:52.722Z,57.82
2023-05-04T06:29:52.761Z,57.67
2023-05-04T06:30:52.706Z,57.67
2023-05-04T06:31:52.775Z,57.01
2023-05-04T06:32:54.385Z,56.87
2023-05-04T06:33:55.198Z,57.12
2023-05-04T06:34:52.881Z,57.05
2023-05-04T06:35:52.852Z,56.75
2023-05-04T06:36:52.916Z,56.69
2023-05-04T06:37:53.325Z,57.00
2023-05-04T06:38:52.926Z,57.24
2023-05-04T06:39:53.038Z,56.59
2023-05-04T06:40:53.074Z,56.32
2023-05-04T06:41:53.115Z,56.49
2023-05-04T06:42:53.240Z,56.33
2023-05-04T06:43:53.119Z,56.98
2023-05-04T06:44:53.088Z,55.67
2023-05-04T06:45:53.204Z,54.82
2023-05-04T06:46:53.158Z,54.98
2023-05-04T06:47:53.251Z,55.11
2023-05-04T06:48:53.201Z,55.08
2023-05-04T06:49:53.438Z,54.72
2023-05-04T06:50:53.343Z,55.43
2023-05-04T06:51:53.335Z,54.77
2023-05-04T06:52:53.393Z,55.18
2023-05-04T06:53:53.425Z,54.79
2023-05-04T06:54:53.488Z,55.09
2023-05-04T06:55:53.548Z,54.60
2023-05-04T06:56:53.521Z,54.44
2023-05-04T06:57:53.532Z,53.86
2023-05-04T06:58:53.570Z,53.52
2023-05-04T06:59:53.579Z,53.49
2023-05-04T07:00:53.708Z,52.98
2023-05-04T07:01:53.787Z,53.48
2023-05-04T07:02:54.281Z,53.09
2023-05-04T07:03:53.817Z,52.90
2023-05-04T07:04:54.730Z,52.45
2023-05-04T07:05:53.864Z,52.14
2023-05-04T07:06:53.879Z,51.06
2023-05-04T07:07:53.884Z,51.43
2023-05-04T07:08:53.920Z,51.41
2023-05-04T07:09:53.986Z,51.18
2023-05-04T07:10:54.076Z,52.34
2023-05-04T07:11:54.041Z,52.48
2023-05-04T07:12:54.184Z,51.87
2023-05-04T07:13:54.129Z,51.30
2023-05-04T07:14:54.149Z,50.76
2023-05-04T07:15:54.262Z,51.16
2023-05-04T07:16:54.296Z,51.30
2023-05-04T07:17:54.396Z,51.06
2023-05-04T07:18:54.273Z,50.63
2023-05-04T07:19:54.397Z,50.93
2023-05-04T07:21:01.551Z,51.32
2023-05-04T07:21:55.449Z,50.08
2023-05-04T07:22:54.399Z,48.93
2023-05-04T07:23:54.373Z,48.63
2023-05-04T07:24:54.340Z,49.05
2023-05-04T07:25:55.248Z,49.36
2023-05-04T07:26:54.319Z,48.94
2023-05-04T07:27:54.353Z,49.49
2023-05-04T07:28:54.322Z,49.56
2023-05-04T07:29:54.413Z,49.49
2023-05-04T07:30:54.401Z,49.20
2023-05-04T07:31:54.482Z,49.01
2023-05-04T07:32:54.432Z,48.73
2023-05-04T07:33:54.431Z,48.61
2023-05-04T07:34:54.428Z,48.66
2023-05-04T07:35:54.490Z,49.16
2023-05-04T07:36:54.560Z,48.17
2023-05-04T07:37:54.885Z,47.80
2023-05-04T07:38:54.635Z,47.28
2023-05-04T07:39:55.325Z,48.17
2023-05-04T07:40:54.663Z,48.78
2023-05-04T07:41:54.597Z,48.66
2023-05-04T07:42:54.633Z,48.29
2023-05-04T07:43:54.638Z,48.08
2023-05-04T07:44:54.651Z,47.92
2023-05-04T07:45:54.680Z,47.94
2023-05-04T07:46:54.708Z,47.62
2023-05-04T07:47:54.741Z,47.41
2023-05-04T07:48:54.731Z,47.09
2023-05-04T07:49:54.746Z,47.18
2023-05-04T07:50:54.840Z,47.38
2023-05-04T07:51:54.839Z,46.72
2023-05-04T07:52:54.845Z,46.34
2023-05-04T07:53:54.945Z,46.11
2023-05-04T07:54:54.979Z,45.37
2023-05-04T07:55:54.979Z,45.09
2023-05-04T07:56:55.048Z,44.69
2023-05-04T07:57:55.113Z,45.64
2023-05-04T07:58:55.258Z,46.65
2023-05-04T07:59:55.041Z,45.03
2023-05-04T08:00:55.059Z,44.48
2023-05-04T08:01:55.071Z,43.42
2023-05-04T08:02:55.076Z,43.33
2023-05-04T08:03:55.010Z,42.77
2023-05-04T08:04:55.018Z,42.30
2023-05-04T08:05:54.996Z,42.05
2023-05-04T08:06:55.038Z,41.73
2023-05-04T08:07:55.030Z,41.96
2023-05-04T08:08:55.234Z,42.42
2023-05-04T08:09:55.021Z,42.71
2023-05-04T08:10:57.744Z,43.25
2023-05-04T08:11:56.018Z,42.64
2023-05-04T08:12:55.098Z,43.08
2023-05-04T08:13:55.008Z,43.09
2023-05-04T08:14:54.998Z,43.23
2023-05-04T08:15:55.019Z,43.37
2023-05-04T08:16:54.984Z,42.57
2023-05-04T08:17:55.032Z,42.74
2023-05-04T08:18:54.981Z,42.12
2023-05-04T08:19:55.826Z,41.82
2023-05-04T08:20:55.739Z,42.03
2023-05-04T08:21:54.931Z,42.51
2023-05-04T08:22:55.260Z,43.32
2023-05-04T08:23:55.119Z,43.62
2023-05-04T08:24:55.796Z,43.44
2023-05-04T08:25:54.919Z,43.26
2023-05-04T08:27:06.664Z,43.86
2023-05-04T08:27:56.241Z,42.49
2023-05-04T08:28:55.742Z,42.79
2023-05-04T08:29:54.971Z,42.09
2023-05-04T08:30:54.962Z,41.98
2023-05-04T08:31:54.937Z,42.16
2023-05-04T08:32:54.917Z,42.09
2023-05-04T08:33:54.931Z,41.95
2023-05-04T08:34:54.865Z,42.17
2023-05-04T08:35:54.941Z,41.88
2023-05-04T08:36:57.809Z,40.55
2023-05-04T08:37:55.283Z,39.68
2023-05-04T08:38:55.254Z,39.43
2023-05-04T08:39:55.771Z,38.94
2023-05-04T08:40:54.855Z,39.13
2023-05-04T08:41:54.933Z,39.27
2023-05-04T08:42:54.825Z,38.89
2023-05-04T08:43:54.837Z,39.50
2023-05-04T08:44:54.839Z,39.35
2023-05-04T08:45:54.918Z,38.17
2023-05-04T08:46:54.860Z,37.61
2023-05-04T08:47:54.844Z,36.85
2023-05-04T08:48:55.740Z,36.03
2023-05-04T08:49:54.834Z,36.23
2023-05-04T08:50:54.834Z,36.27
2023-05-04T08:51:54.963Z,36.82
2023-05-04T08:52:54.793Z,36.98
2023-05-04T08:53:54.770Z,36.95
2023-05-04T08:54:54.729Z,36.13
2023-05-04T08:55:54.728Z,36.02
2023-05-04T08:56:54.716Z,36.77
2023-05-04T08:57:54.766Z,36.54
2023-05-04T08:58:55.378Z,36.34
2023-05-04T08:59:54.933Z,36.42
2023-05-04T09:00:54.757Z,36.70
2023-05-04T09:01:54.764Z,36.97
2023-05-04T09:02:54.807Z,36.46
2023-05-04T09:03:54.792Z,36.80
2023-05-04T09:04:54.663Z,36.39
2023-05-04T09:05:54.731Z,36.09
2023-05-04T09:06:54.727Z,36.29
2023-05-04T09:07:54.808Z,35.93
2023-05-04T09:08:54.683Z,35.54
2023-05-04T09:09:55.307Z,35.25
2023-05-04T09:10:54.620Z,35.49
2023-05-04T09:11:55.268Z,35.80
2023-05-04T09:12:54.700Z,35.40
2023-05-04T09:13:54.695Z,35.24
2023-05-04T09:14:54.673Z,35.38
2023-05-04T09:15:54.656Z,35.18
2023-05-04T09:16:54.617Z,35.04
2023-05-04T09:17:57.671Z,35.87
2023-05-04T09:18:54.590Z,36.41
2023-05-04T09:19:54.658Z,35.66
2023-05-04T09:20:54.588Z,35.42
2023-05-04T09:21:54.579Z,35.44
2023-05-04T09:22:54.579Z,36.08
2023-05-04T09:23:54.707Z,37.16
2023-05-04T09:24:54.570Z,35.91
2023-05-04T09:25:54.534Z,36.41
2023-05-04T09:26:54.544Z,35.71
2023-05-04T09:27:54.778Z,35.74
2023-05-04T09:28:55.256Z,36.18
2023-05-04T09:29:55.349Z,38.03
2023-05-04T09:30:54.582Z,40.00
2023-05-04T09:31:54.491Z,37.08
2023-05-04T09:32:54.690Z,37.45
2023-05-04T09:33:54.475Z,37.97
2023-05-04T09:34:54.508Z,38.45
2023-05-04T09:35:54.513Z,38.11
2023-05-04T09:36:55.404Z,37.69
2023-05-04T09:37:54.454Z,37.41
2023-05-04T09:38:54.532Z,36.88
2023-05-04T09:39:54.488Z,35.55
2023-05-04T09:40:55.288Z,34.85
2023-05-04T09:41:54.495Z,34.92
2023-05-04T09:42:54.449Z,35.51
2023-05-04T09:43:54.402Z,35.82
2023-05-04T09:44:54.427Z,36.72
2023-05-04T09:45:54.487Z,36.28
2023-05-04T09:46:54.427Z,36.36
2023-05-04T09:47:54.510Z,36.71
2023-05-04T09:48:54.376Z,35.73
2023-05-04T09:49:54.401Z,34.90
2023-05-04T09:50:54.408Z,35.54
2023-05-04T09:51:54.402Z,35.64
2023-05-04T09:52:54.374Z,35.16
2023-05-04T09:53:54.876Z,35.62
2023-05-04T09:54:54.383Z,34.35
2023-05-04T09:55:54.330Z,34.78
2023-05-04T09:56:54.350Z,34.87
2023-05-04T09:57:54.370Z,33.62
2023-05-04T09:58:54.339Z,33.31
2023-05-04T09:59:54.302Z,33.72
2023-05-04T10:00:54.387Z,34.24
2023-05-04T10:01:54.339Z,34.66
2023-05-04T10:02:54.315Z,34.87
2023-05-04T10:03:55.271Z,34.70
2023-05-04T10:04:54.300Z,33.83
2023-05-04T10:05:54.412Z,34.19
2023-05-04T10:06:54.282Z,33.74
2023-05-04T10:07:54.404Z,33.86
2023-05-04T10:08:54.417Z,33.97
2023-05-04T10:09:55.304Z,34.99
2023-05-04T10:10:54.445Z,34.61
2023-05-04T10:11:54.472Z,34.36
2023-05-04T10:12:54.597Z,33.87
2023-05-04T10:13:54.560Z,33.74
2023-05-04T10:14:54.584Z,33.66
2023-05-04T10:15:54.661Z,33.57
2023-05-04T10:16:54.624Z,33.64
2023-05-04T10:17:54.723Z,34.15
2023-05-04T10:18:55.817Z,34.60
2023-05-04T10:19:54.785Z,33.69
2023-05-04T10:20:54.957Z,33.96
2023-05-04T10:21:54.854Z,34.20
2023-05-04T10:22:54.881Z,34.75
2023-05-04T10:23:54.895Z,33.50
2023-05-04T10:24:55.024Z,34.31
2023-05-04T10:25:55.027Z,34.60
2023-05-04T10:26:54.987Z,34.53
2023-05-04T10:27:55.023Z,33.83
2023-05-04T10:28:55.107Z,32.90
2023-05-04T10:29:55.506Z,32.77
2023-05-04T10:30:55.136Z,33.10
2023-05-04T10:31:55.227Z,33.18
2023-05-04T10:32:55.270Z,32.27
2023-05-04T10:33:55.244Z,32.11
2023-05-04T10:34:57.245Z,33.61
2023-05-04T10:35:55.301Z,34.64
2023-05-04T10:36:55.266Z,34.48
2023-05-04T10:37:55.285Z,34.22
2023-05-04T10:38:55.359Z,33.75
2023-05-04T10:39:55.369Z,32.53
2023-05-04T10:40:55.428Z,32.63
2023-05-04T10:41:55.499Z,32.74
2023-05-04T10:42:55.538Z,32.94
2023-05-04T10:43:55.661Z,31.41
2023-05-04T10:44:55.683Z,31.76
2023-05-04T10:45:55.723Z,32.58
2023-05-04T10:46:56.790Z,32.79
2023-05-04T10:47:55.744Z,32.85
2023-05-04T10:48:55.847Z,31.59
2023-05-04T10:49:55.811Z,31.08
2023-05-04T10:50:55.815Z,31.76
2023-05-04T10:51:55.883Z,31.19
2023-05-04T10:52:57.578Z,31.55
2023-05-04T10:53:55.941Z,31.76
2023-05-04T10:54:55.934Z,32.37
2023-05-04T10:55:55.987Z,32.22
2023-05-04T10:56:56.038Z,31.18
2023-05-04T10:57:56.075Z,31.32
2023-05-04T10:58:56.022Z,32.12
2023-05-04T10:59:56.096Z,30.83
2023-05-04T11:00:56.169Z,31.20
2023-05-04T11:01:57.112Z,31.55
2023-05-04T11:02:56.140Z,30.82
2023-05-04T11:03:56.138Z,31.16
2023-05-04T11:04:56.151Z,31.11
2023-05-04T11:05:56.110Z,30.07
2023-05-04T11:06:56.149Z,31.31
2023-05-04T11:07:56.140Z,30.12
2023-05-04T11:08:56.177Z,28.75
2023-05-04T11:09:56.175Z,29.47
2023-05-04T11:10:56.212Z,29.19
2023-05-04T11:11:56.319Z,27.85
2023-05-04T11:12:56.383Z,28.17
2023-05-04T11:13:56.407Z,28.44
2023-05-04T11:14:56.423Z,28.89
2023-05-04T11:15:56.441Z,28.54
2023-05-04T11:16:56.512Z,28.50
2023-05-04T11:17:56.550Z,28.49
2023-05-04T11:18:56.846Z,30.01
2023-05-04T11:19:56.623Z,29.82
2023-05-04T11:20:56.638Z,29.67
2023-05-04T11:21:56.644Z,29.15
2023-05-04T11:22:56.669Z,29.28
2023-05-04T11:23:56.782Z,28.41
2023-05-04T11:24:56.756Z,27.76
2023-05-04T11:25:56.760Z,27.70
2023-05-04T11:26:56.855Z,27.45
2023-05-04T11:27:56.758Z,27.69
2023-05-04T11:28:56.786Z,28.03
2023-05-04T11:29:56.846Z,27.59
2023-05-04T11:30:56.764Z,26.92
2023-05-04T11:31:56.880Z,27.18
2023-05-04T11:32:56.806Z,27.49
2023-05-04T11:33:56.873Z,27.57
2023-05-04T11:34:56.898Z,27.59
2023-05-04T11:35:56.884Z,28.31
2023-05-04T11:36:57.077Z,28.46
2023-05-04T11:37:57.104Z,28.29
2023-05-04T11:38:57.345Z,28.46
2023-05-04T11:39:57.811Z,28.49
2023-05-04T11:40:57.272Z,28.06
2023-05-04T11:41:57.325Z,27.71
2023-05-04T11:42:57.478Z,27.86
2023-05-04T11:43:57.833Z,27.65
2023-05-04T11:44:57.436Z,27.30
2023-05-04T11:45:58.335Z,27.22
2023-05-04T11:46:57.474Z,27.94
2023-05-04T11:47:57.667Z,27.70
2023-05-04T11:48:57.826Z,27.39
2023-05-04T11:49:57.637Z,28.40
2023-05-04T11:50:57.710Z,28.47
2023-05-04T11:51:57.809Z,27.11
2023-05-04T11:52:57.798Z,27.72
2023-05-04T11:53:57.859Z,27.52
2023-05-04T11:54:57.899Z,27.52
2023-05-04T11:55:57.882Z,27.44
2023-05-04T11:56:57.921Z,27.23
2023-05-04T11:57:57.972Z,27.21
2023-05-04T11:58:58.011Z,27.32
2023-05-04T11:59:58.092Z,26.25
2023-05-04T12:00:58.051Z,26.33
2023-05-04T12:01:58.064Z,26.75
2023-05-04T12:02:58.195Z,27.08
2023-05-04T12:03:58.338Z,27.40
2023-05-04T12:04:58.329Z,27.03
2023-05-04T12:05:58.313Z,26.78
2023-05-04T12:06:59.612Z,26.72
2023-05-04T12:07:58.196Z,26.69
2023-05-04T12:08:58.198Z,25.78
2023-05-04T12:09:58.826Z,26.25
2023-05-04T12:10:58.181Z,25.71
2023-05-04T12:11:58.194Z,26.13
2023-05-04T12:12:58.236Z,27.31
2023-05-04T12:13:58.189Z,27.06
2023-05-04T12:14:58.148Z,27.35
2023-05-04T12:15:58.204Z,27.17
2023-05-04T12:16:58.246Z,26.28
2023-05-04T12:17:59.221Z,27.32
2023-05-04T12:18:59.389Z,26.52
2023-05-04T12:19:58.148Z,26.76
2023-05-04T12:20:58.121Z,27.01
2023-05-04T12:21:58.136Z,26.64
2023-05-04T12:22:58.111Z,25.91
2023-05-04T12:23:58.121Z,25.46
2023-05-04T12:24:58.136Z,25.13
2023-05-04T12:25:58.684Z,25.11
2023-05-04T12:26:58.070Z,25.16
2023-05-04T12:27:58.067Z,24.89
2023-05-04T12:28:58.100Z,25.21
2023-05-04T12:29:58.077Z,24.80
2023-05-04T12:30:58.067Z,24.53
2023-05-04T12:31:58.126Z,24.47
2023-05-04T12:32:58.122Z,24.31
2023-05-04T12:33:58.047Z,24.79
2023-05-04T12:34:58.012Z,24.61
2023-05-04T12:35:57.991Z,24.57
2023-05-04T12:36:58.003Z,24.57
2023-05-04T12:37:57.993Z,24.23
2023-05-04T12:38:57.978Z,23.78
2023-05-04T12:39:58.368Z,24.26
2023-05-04T12:40:58.018Z,24.43
2023-05-04T12:41:57.962Z,24.37
2023-05-04T12:42:57.961Z,24.38
2023-05-04T12:43:58.844Z,23.51
2023-05-04T12:44:57.969Z,23.50
2023-05-04T12:45:57.962Z,23.52
2023-05-04T12:46:57.933Z,23.63
2023-05-04T12:47:57.958Z,23.44
2023-05-04T12:48:57.980Z,23.73
2023-05-04T12:49:58.025Z,24.14
2023-05-04T12:50:58.002Z,24.18
2023-05-04T12:51:57.993Z,24.86
2023-05-04T12:52:58.055Z,24.38